createdAt,value
2019-03-06T00:03:53.986Z,5.80
2019-03-06T00:07:56.167Z,4.73
2019-03-06T00:11:58.143Z,6.27
2019-03-06T00:16:00.033Z,3.20
2019-03-06T00:20:01.996Z,4.73
2019-03-06T00:24:05.023Z,4.23
2019-03-06T00:28:06.960Z,6.60
2019-03-06T00:32:09.001Z,8.50
2019-03-06T00:36:12.528Z,4.73
2019-03-06T00:40:19.799Z,5.37
2019-03-06T00:44:21.708Z,9.63
2019-03-06T00:48:23.742Z,7.47
2019-03-06T00:52:25.628Z,4.07
2019-03-06T00:56:27.543Z,5.83
2019-03-06T01:00:29.586Z,6.27
2019-03-06T01:04:31.495Z,10.13
2019-03-06T01:08:33.578Z,7.33
2019-03-06T01:12:36.025Z,10.10
2019-03-06T01:16:37.935Z,5.45
2019-03-06T01:20:39.838Z,6.17
2019-03-06T01:24:42.884Z,5.22
2019-03-06T01:28:45.063Z,4.70
2019-03-06T01:32:48.659Z,7.93
2019-03-06T01:37:08.883Z,9.90
2019-03-06T01:41:13.478Z,8.73
2019-03-06T01:45:15.904Z,6.53
2019-03-06T01:49:17.808Z,6.07
2019-03-06T01:53:19.703Z,4.63
2019-03-06T01:57:21.585Z,5.30
2019-03-06T02:01:23.491Z,3.00
2019-03-06T02:05:25.881Z,8.48
2019-03-06T02:09:29.033Z,7.23
2019-03-06T02:13:31.225Z,7.60
2019-03-06T02:17:33.238Z,5.20
2019-03-06T02:21:35.189Z,6.60
2019-03-06T02:25:37.183Z,9.48
2019-03-06T02:29:39.081Z,8.50
2019-03-06T02:33:41.025Z,5.00
2019-03-06T02:37:42.998Z,4.15
2019-03-06T02:41:45.216Z,5.30
2019-03-06T02:45:47.220Z,5.93
2019-03-06T02:49:49.124Z,8.90
2019-03-06T02:53:51.012Z,5.17
2019-03-06T02:57:54.549Z,5.37
2019-03-06T03:02:00.809Z,6.03
2019-03-06T03:06:04.427Z,3.97
2019-03-06T03:10:10.026Z,4.77
2019-03-06T03:14:11.918Z,6.27
2019-03-06T03:18:13.837Z,5.37
2019-03-06T03:22:15.729Z,5.47
2019-03-06T03:26:25.006Z,5.30
2019-03-06T03:30:27.188Z,4.37
2019-03-06T03:34:29.106Z,5.33
2019-03-06T03:38:31.948Z,3.20
2019-03-06T03:42:33.860Z,3.52
2019-03-06T03:46:35.761Z,3.47
2019-03-06T03:50:37.654Z,5.43
2019-03-06T03:54:39.556Z,4.92
2019-03-06T03:58:41.501Z,3.35
2019-03-06T04:02:43.741Z,7.20
2019-03-06T04:06:45.831Z,6.13
2019-03-06T04:10:47.836Z,5.83
2019-03-06T04:14:49.719Z,8.43
2019-03-06T04:18:51.642Z,9.57
2019-03-06T04:22:53.558Z,11.85
2019-03-06T04:26:55.469Z,12.07
2019-03-06T04:30:57.386Z,10.20
2019-03-06T04:35:00.349Z,11.63
2019-03-06T04:39:02.230Z,9.77
2019-03-06T04:43:05.745Z,10.63
2019-03-06T04:47:07.654Z,9.63
2019-03-06T04:51:09.572Z,12.33
2019-03-06T04:55:13.796Z,12.00
2019-03-06T04:59:15.699Z,12.97
2019-03-06T05:03:17.910Z,14.33
2019-03-06T05:07:19.809Z,16.13
2019-03-06T05:11:21.726Z,19.07
2019-03-06T05:15:23.647Z,16.45
2019-03-06T05:19:25.579Z,19.97
2019-03-06T05:23:27.564Z,19.10
2019-03-06T05:27:29.480Z,15.70
2019-03-06T05:31:31.938Z,14.90
2019-03-06T05:36:05.208Z,22.17
2019-03-06T05:40:07.124Z,22.67
2019-03-06T05:44:13.104Z,20.43
2019-03-06T05:48:12.790Z,16.80
2019-03-06T05:52:15.396Z,19.07
2019-03-06T05:56:17.309Z,21.77
2019-03-06T06:00:21.566Z,20.77
2019-03-06T06:04:23.518Z,22.17
2019-03-06T06:08:25.716Z,21.95
2019-03-06T06:12:27.629Z,17.23
2019-03-06T06:16:29.577Z,18.47
2019-03-06T06:20:31.488Z,24.10
2019-03-06T06:24:33.592Z,21.93
2019-03-06T06:28:35.498Z,22.95
2019-03-06T06:32:37.420Z,23.07
2019-03-06T06:36:39.335Z,15.93
2019-03-06T06:40:41.326Z,19.12
2019-03-06T06:44:43.237Z,19.43
2019-03-06T06:48:45.236Z,19.07
2019-03-06T06:53:14.537Z,22.37
2019-03-06T06:57:39.060Z,17.07
2019-03-06T07:02:20.907Z,19.05
2019-03-06T07:06:27.214Z,19.13
2019-03-06T07:10:46.860Z,17.33
2019-03-06T07:15:06.816Z,16.80
2019-03-06T07:19:26.504Z,17.73
2019-03-06T07:23:46.235Z,17.33
2019-03-06T07:27:52.763Z,15.93
2019-03-06T07:31:56.313Z,16.03
2019-03-06T07:36:01.467Z,16.33
2019-03-06T07:40:05.034Z,15.33
2019-03-06T07:44:29.744Z,14.67
2019-03-06T07:48:27.227Z,14.90
2019-03-06T07:52:30.783Z,14.03
2019-03-06T07:56:34.397Z,13.30
2019-03-06T08:00:36.331Z,12.53
2019-03-06T08:04:38.431Z,12.60
2019-03-06T08:08:40.359Z,11.75
2019-03-06T08:12:44.188Z,11.20
2019-03-06T08:16:47.806Z,10.30
2019-03-06T08:20:51.541Z,10.63
2019-03-06T08:25:12.460Z,9.50
2019-03-06T08:29:14.501Z,6.83
2019-03-06T08:33:18.483Z,9.33
2019-03-06T08:37:20.663Z,10.17
2019-03-06T08:41:22.692Z,8.67
2019-03-06T08:45:30.356Z,8.85
2019-03-06T08:49:35.341Z,8.33
2019-03-06T08:53:47.559Z,9.33
2019-03-06T08:57:54.155Z,6.80
2019-03-06T09:02:00.931Z,9.20
2019-03-06T09:06:05.829Z,8.63
2019-03-06T09:10:14.536Z,7.60
2019-03-06T09:14:21.256Z,7.40
2019-03-06T09:18:28.217Z,6.17
2019-03-06T09:22:30.156Z,7.12
2019-03-06T09:26:37.029Z,6.85
2019-03-06T09:30:43.390Z,6.50
2019-03-06T09:34:52.861Z,7.20
2019-03-06T09:38:57.663Z,7.17
2019-03-06T09:43:01.784Z,7.53
2019-03-06T09:47:06.325Z,7.37
2019-03-06T09:51:25.266Z,6.50
2019-03-06T09:55:34.806Z,6.90
2019-03-06T09:59:39.382Z,7.93
2019-03-06T10:03:50.253Z,6.77
2019-03-06T10:07:53.842Z,7.50
2019-03-06T10:12:15.501Z,7.53
2019-03-06T10:16:23.260Z,7.63
2019-03-06T10:20:26.614Z,7.00
2019-03-06T10:24:28.517Z,6.53
2019-03-06T10:28:30.402Z,5.95
2019-03-06T10:32:32.402Z,5.03
2019-03-06T10:36:34.313Z,5.63
2019-03-06T10:40:36.211Z,4.78
2019-03-06T10:44:38.118Z,4.90
2019-03-06T10:48:40.010Z,4.10
2019-03-06T10:52:42.258Z,4.92
2019-03-06T10:56:44.230Z,4.37
2019-03-06T11:00:47.802Z,4.40
2019-03-06T11:04:54.068Z,3.80
2019-03-06T11:08:55.969Z,3.00
2019-03-06T11:12:58.990Z,3.40
2019-03-06T11:17:01.484Z,3.57
2019-03-06T11:21:03.635Z,3.53
2019-03-06T11:25:10.293Z,2.73
2019-03-06T11:29:12.899Z,3.50
2019-03-06T11:33:15.823Z,3.77
2019-03-06T11:37:18.051Z,3.83
2019-03-06T11:41:20.111Z,4.30
2019-03-06T11:45:22.632Z,3.93
2019-03-06T11:49:25.809Z,4.13
2019-03-06T11:53:29.065Z,4.70
2019-03-06T11:57:33.227Z,4.57
2019-03-06T12:01:35.699Z,5.00
2019-03-06T12:05:38.939Z,5.00
2019-03-06T12:14:07.719Z,4.80
2019-03-06T12:18:09.865Z,4.47
2019-03-06T12:22:11.771Z,5.00
2019-03-06T12:26:13.744Z,5.43
2019-03-06T12:30:19.958Z,5.43
2019-03-06T12:34:21.872Z,5.37
2019-03-06T12:38:24.106Z,5.50
2019-03-06T12:42:26.053Z,4.50
2019-03-06T12:46:29.034Z,4.43
2019-03-06T12:50:39.741Z,4.80
2019-03-06T12:54:41.653Z,4.62
2019-03-06T12:58:43.630Z,4.50
2019-03-06T13:02:45.999Z,4.47
2019-03-06T13:06:47.918Z,3.80
2019-03-06T13:10:49.883Z,3.73
2019-03-06T13:14:51.985Z,3.08
2019-03-06T13:18:54.042Z,3.37
2019-03-06T13:22:56.180Z,2.53
2019-03-06T13:26:58.151Z,3.40
2019-03-06T13:31:00.087Z,1.70
2019-03-06T13:35:02.180Z,2.30
2019-03-06T13:39:06.601Z,3.00
2019-03-06T13:43:08.945Z,2.40
2019-03-06T13:47:11.920Z,2.67
2019-03-06T13:51:13.905Z,3.00
2019-03-06T13:55:17.821Z,2.77
2019-03-06T13:59:19.739Z,3.10
2019-03-06T14:03:21.658Z,2.60
2019-03-06T14:07:23.583Z,2.90
2019-03-06T14:11:25.825Z,3.20
2019-03-06T14:15:27.816Z,2.87
2019-03-06T14:19:29.738Z,2.80
2019-03-06T14:23:35.133Z,2.87
2019-03-06T14:27:35.539Z,2.70
2019-03-06T14:31:37.601Z,2.53
2019-03-06T14:35:39.530Z,2.50
2019-03-06T14:39:41.731Z,3.10
2019-03-06T14:43:43.649Z,3.00
2019-03-06T14:47:47.336Z,2.40
2019-03-06T14:51:49.243Z,2.40
2019-03-06T14:55:51.242Z,2.50
2019-03-06T14:59:53.172Z,2.30
2019-03-06T15:03:55.073Z,2.67
2019-03-06T15:08:07.112Z,2.57
2019-03-06T15:12:09.070Z,2.70
2019-03-06T15:16:11.033Z,2.60
2019-03-06T15:20:25.138Z,2.63
2019-03-06T15:24:27.083Z,2.40
2019-03-06T15:28:29.037Z,2.90
2019-03-06T15:32:32.465Z,3.20
2019-03-06T15:36:34.388Z,3.10
2019-03-06T15:40:40.442Z,2.97
2019-03-06T15:44:42.495Z,3.20
2019-03-06T15:48:44.528Z,2.80
2019-03-06T15:52:46.941Z,2.77
2019-03-06T15:56:48.862Z,3.23
2019-03-06T16:00:50.843Z,3.00
2019-03-06T16:04:52.773Z,3.40
2019-03-06T16:08:55.058Z,2.97
2019-03-06T16:12:57.216Z,2.80
2019-03-06T16:16:59.424Z,4.00
2019-03-06T16:21:01.481Z,3.50
2019-03-06T16:25:03.860Z,3.20
2019-03-06T16:29:05.908Z,5.90
2019-03-06T16:33:08.024Z,4.10
2019-03-06T16:37:10.087Z,3.10
2019-03-06T16:41:13.695Z,3.00
2019-03-06T16:45:18.971Z,3.03
2019-03-06T16:49:20.881Z,3.93
2019-03-06T16:53:22.803Z,4.57
2019-03-06T16:57:25.935Z,3.40
2019-03-06T17:01:31.577Z,5.43
2019-03-06T17:05:34.804Z,3.58
2019-03-06T17:09:37.035Z,3.77
2019-03-06T17:13:39.128Z,4.37
2019-03-06T17:17:41.013Z,3.27
2019-03-06T17:21:42.919Z,3.17
2019-03-06T17:25:44.832Z,3.07
2019-03-06T17:29:46.733Z,2.83
2019-03-06T17:33:48.695Z,3.40
2019-03-06T17:37:50.593Z,4.10
2019-03-06T17:41:52.746Z,3.77
2019-03-06T17:45:54.701Z,3.57
2019-03-06T17:49:56.599Z,2.77
2019-03-06T17:53:58.529Z,3.63
2019-03-06T17:58:00.466Z,3.33
2019-03-06T18:02:02.458Z,3.77
2019-03-06T18:06:04.373Z,3.20
2019-03-06T18:10:14.023Z,3.50
2019-03-06T18:14:16.072Z,2.47
2019-03-06T18:18:18.173Z,2.90
2019-03-06T18:22:20.049Z,2.20
2019-03-06T18:26:21.959Z,2.37
2019-03-06T18:30:23.990Z,2.80
2019-03-06T18:34:26.094Z,2.90
2019-03-06T18:38:28.050Z,2.93
2019-03-06T18:42:29.963Z,2.80
2019-03-06T18:46:31.856Z,2.02
2019-03-06T18:50:33.763Z,2.58
2019-03-06T18:54:35.706Z,2.90
2019-03-06T18:58:37.609Z,2.47
2019-03-06T19:02:39.515Z,2.52
2019-03-06T19:06:41.495Z,2.52
2019-03-06T19:10:43.467Z,2.37
2019-03-06T19:14:45.373Z,2.17
2019-03-06T19:18:47.262Z,2.47
2019-03-06T19:22:50.752Z,2.20
2019-03-06T19:26:52.773Z,2.63
2019-03-06T19:30:54.713Z,2.50
2019-03-06T19:34:56.736Z,1.90
2019-03-06T19:38:59.747Z,2.20
2019-03-06T19:43:01.619Z,1.57
2019-03-06T19:47:03.520Z,1.70
2019-03-06T19:51:05.476Z,1.70
2019-03-06T19:55:11.228Z,1.90
2019-03-06T19:59:13.450Z,1.53
2019-03-06T20:03:15.429Z,2.37
2019-03-06T20:07:17.581Z,3.03
2019-03-06T20:11:20.828Z,2.50
2019-03-06T20:15:22.977Z,2.10
2019-03-06T20:19:26.098Z,2.33
2019-03-06T20:23:28.024Z,1.80
2019-03-06T20:27:29.999Z,1.77
2019-03-06T20:31:31.898Z,2.10
2019-03-06T20:35:34.842Z,2.75
2019-03-06T20:39:36.735Z,2.30
2019-03-06T20:43:38.642Z,1.67
2019-03-06T20:47:40.575Z,2.00
2019-03-06T20:51:42.533Z,1.90
2019-03-06T20:55:44.485Z,2.40
2019-03-06T20:59:46.449Z,3.00
2019-03-06T21:03:50.204Z,3.10
2019-03-06T21:07:52.029Z,2.60
2019-03-06T21:11:53.905Z,2.97
2019-03-06T21:15:55.832Z,2.90
2019-03-06T21:19:57.744Z,2.33
2019-03-06T21:23:59.668Z,4.37
2019-03-06T21:28:01.562Z,4.23
2019-03-06T21:32:03.555Z,2.80
2019-03-06T21:36:05.630Z,3.70
2019-03-06T21:40:11.440Z,3.10
2019-03-06T21:44:13.350Z,4.22
2019-03-06T21:48:15.291Z,4.05
2019-03-06T21:52:17.175Z,4.00
2019-03-06T21:56:20.307Z,2.43
2019-03-06T22:00:24.775Z,2.45
2019-03-06T22:04:27.536Z,2.90
2019-03-06T22:08:29.710Z,2.60
2019-03-06T22:12:31.614Z,2.27
2019-03-06T22:16:33.704Z,4.03
2019-03-06T22:20:35.600Z,2.08
2019-03-06T22:24:37.613Z,2.40
2019-03-06T22:28:39.576Z,1.90
2019-03-06T22:32:41.568Z,3.20
2019-03-06T22:36:43.469Z,2.53
2019-03-06T22:40:52.560Z,3.03
2019-03-06T22:44:54.532Z,3.13
2019-03-06T22:48:57.408Z,2.80
2019-03-06T22:52:59.306Z,2.20
2019-03-06T22:57:02.299Z,3.13
2019-03-06T23:01:08.871Z,3.10
2019-03-06T23:05:11.248Z,2.47
2019-03-06T23:09:13.695Z,4.07
2019-03-06T23:13:15.579Z,3.50
2019-03-06T23:17:17.758Z,2.30
2019-03-06T23:21:19.645Z,4.07
2019-03-06T23:25:21.554Z,3.30
2019-03-06T23:29:23.734Z,3.33
2019-03-06T23:33:26.652Z,2.00
2019-03-06T23:37:28.650Z,2.97
2019-03-06T23:41:30.774Z,2.83
2019-03-06T23:45:32.677Z,4.08
2019-03-06T23:49:36.274Z,3.55
2019-03-06T23:53:45.795Z,3.30
2019-03-06T23:57:47.790Z,3.57
